Terminal Aerodrome Forecast
Issued by NWS Sterling, VA

Current Version | Previous Version | Graphics & Text | Print | Product List | Glossary On
Versions: 1 2 3 4 5 6 7 8 9 10 11 12 13 14 15 16 17 18 19 20 21 22 23 24 25 26
000
FTUS41 KLWX 202300 RRA
TAFDCA
TAF
KDCA 202348Z 2100/2124 VRB03KT P6SM SCT250
     FM211100 00000KT 5SM BR FEW250
     FM211300 VRB03KT P6SM SCT250
     FM211900 24007KT P6SM BKN250=

USA.gov is the U.S. government's official web portal to all federal, state and local government web resources and services.